sensor_id;sensor_type;location;lat;lon;timestamp;P1;durP1;ratioP1;P2;durP2;ratioP2
61572;SDS011;47465;43.094;12.434;2022-09-03T00:00:57;8.77;;;6.00;;
61572;SDS011;47465;43.094;12.434;2022-09-03T00:03:28;7.75;;;5.68;;
61572;SDS011;47465;43.094;12.434;2022-09-03T00:06:07;7.25;;;6.10;;
61572;SDS011;47465;43.094;12.434;2022-09-03T00:08:38;6.63;;;5.70;;
61572;SDS011;47465;43.094;12.434;2022-09-03T00:11:12;9.93;;;6.35;;
61572;SDS011;47465;43.094;12.434;2022-09-03T00:13:44;6.82;;;5.90;;
61572;SDS011;47465;43.094;12.434;2022-09-03T00:16:14;7.18;;;5.95;;
61572;SDS011;47465;43.094;12.434;2022-09-03T00:18:47;7.28;;;5.60;;
61572;SDS011;47465;43.094;12.434;2022-09-03T00:21:19;7.32;;;5.60;;
61572;SDS011;47465;43.094;12.434;2022-09-03T00:23:56;8.02;;;5.82;;
61572;SDS011;47465;43.094;12.434;2022-09-03T00:26:29;8.85;;;6.25;;
61572;SDS011;47465;43.094;12.434;2022-09-03T00:29:01;8.52;;;6.45;;
61572;SDS011;47465;43.094;12.434;2022-09-03T00:31:32;7.15;;;5.95;;
61572;SDS011;47465;43.094;12.434;2022-09-03T00:34:04;8.30;;;6.03;;
61572;SDS011;47465;43.094;12.434;2022-09-03T00:36:34;7.70;;;6.28;;
61572;SDS011;47465;43.094;12.434;2022-09-03T00:39:08;7.15;;;5.97;;
61572;SDS011;47465;43.094;12.434;2022-09-03T00:41:37;9.32;;;6.28;;
61572;SDS011;47465;43.094;12.434;2022-09-03T00:47:03;8.55;;;6.70;;
61572;SDS011;47465;43.094;12.434;2022-09-03T00:49:38;9.80;;;6.65;;
61572;SDS011;47465;43.094;12.434;2022-09-03T00:52:18;7.63;;;6.22;;
61572;SDS011;47465;43.094;12.434;2022-09-03T00:54:56;7.80;;;6.53;;
61572;SDS011;47465;43.094;12.434;2022-09-03T00:57:33;7.30;;;6.18;;
61572;SDS011;47465;43.094;12.434;2022-09-03T01:00:09;11.80;;;6.60;;
61572;SDS011;47465;43.094;12.434;2022-09-03T01:02:43;7.68;;;6.22;;
61572;SDS011;47465;43.094;12.434;2022-09-03T01:05:19;8.43;;;6.10;;
61572;SDS011;47465;43.094;12.434;2022-09-03T01:08:03;10.73;;;6.63;;
61572;SDS011;47465;43.094;12.434;2022-09-03T01:10:39;9.35;;;6.43;;
61572;SDS011;47465;43.094;12.434;2022-09-03T01:13:16;11.25;;;6.63;;
61572;SDS011;47465;43.094;12.434;2022-09-03T01:15:49;8.27;;;6.22;;
61572;SDS011;47465;43.094;12.434;2022-09-03T01:18:27;8.65;;;6.68;;
61572;SDS011;47465;43.094;12.434;2022-09-03T01:21:05;7.05;;;6.25;;
61572;SDS011;47465;43.094;12.434;2022-09-03T01:23:53;10.95;;;7.40;;
61572;SDS011;47465;43.094;12.434;2022-09-03T01:26:51;7.85;;;6.47;;
61572;SDS011;47465;43.094;12.434;2022-09-03T01:29:32;8.32;;;6.70;;
61572;SDS011;47465;43.094;12.434;2022-09-03T01:32:05;10.55;;;6.80;;
61572;SDS011;47465;43.094;12.434;2022-09-03T01:34:40;10.02;;;6.75;;
61572;SDS011;47465;43.094;12.434;2022-09-03T01:37:14;9.27;;;6.75;;
61572;SDS011;47465;43.094;12.434;2022-09-03T01:39:51;8.27;;;6.53;;
61572;SDS011;47465;43.094;12.434;2022-09-03T01:42:29;9.35;;;6.90;;
61572;SDS011;47465;43.094;12.434;2022-09-03T01:45:16;8.35;;;6.95;;
61572;SDS011;47465;43.094;12.434;2022-09-03T01:47:55;11.15;;;6.97;;
61572;SDS011;47465;43.094;12.434;2022-09-03T01:50:37;9.25;;;6.55;;
61572;SDS011;47465;43.094;12.434;2022-09-03T01:53:09;8.05;;;6.80;;
61572;SDS011;47465;43.094;12.434;2022-09-03T01:55:52;7.88;;;6.47;;
61572;SDS011;47465;43.094;12.434;2022-09-03T01:58:31;7.80;;;6.45;;
61572;SDS011;47465;43.094;12.434;2022-09-03T02:01:01;11.27;;;7.28;;
61572;SDS011;47465;43.094;12.434;2022-09-03T02:03:32;9.40;;;6.40;;
61572;SDS011;47465;43.094;12.434;2022-09-03T02:06:01;10.55;;;6.28;;
61572;SDS011;47465;43.094;12.434;2022-09-03T02:08:28;9.02;;;6.43;;
61572;SDS011;47465;43.094;12.434;2022-09-03T02:10:54;7.57;;;6.32;;
61572;SDS011;47465;43.094;12.434;2022-09-03T02:13:27;8.40;;;6.50;;
61572;SDS011;47465;43.094;12.434;2022-09-03T02:15:57;8.80;;;7.00;;
61572;SDS011;47465;43.094;12.434;2022-09-03T02:18:28;8.38;;;6.50;;
61572;SDS011;47465;43.094;12.434;2022-09-03T02:20:58;7.97;;;6.55;;
61572;SDS011;47465;43.094;12.434;2022-09-03T02:23:25;8.05;;;6.45;;
61572;SDS011;47465;43.094;12.434;2022-09-03T02:25:54;9.15;;;6.13;;
61572;SDS011;47465;43.094;12.434;2022-09-03T02:28:21;8.15;;;6.35;;
61572;SDS011;47465;43.094;12.434;2022-09-03T02:30:48;10.70;;;6.88;;
61572;SDS011;47465;43.094;12.434;2022-09-03T02:33:14;8.18;;;6.70;;
61572;SDS011;47465;43.094;12.434;2022-09-03T02:35:42;8.98;;;6.93;;
61572;SDS011;47465;43.094;12.434;2022-09-03T02:38:09;8.15;;;6.65;;
61572;SDS011;47465;43.094;12.434;2022-09-03T02:40:36;7.88;;;6.35;;
61572;SDS011;47465;43.094;12.434;2022-09-03T02:43:01;8.68;;;7.35;;
61572;SDS011;47465;43.094;12.434;2022-09-03T02:45:29;10.80;;;6.60;;
61572;SDS011;47465;43.094;12.434;2022-09-03T02:47:57;11.82;;;6.57;;
61572;SDS011;47465;43.094;12.434;2022-09-03T02:50:25;10.55;;;7.00;;
61572;SDS011;47465;43.094;12.434;2022-09-03T02:52:52;9.52;;;6.65;;
61572;SDS011;47465;43.094;12.434;2022-09-03T02:55:19;8.38;;;6.35;;
61572;SDS011;47465;43.094;12.434;2022-09-03T02:57:45;10.98;;;6.50;;
61572;SDS011;47465;43.094;12.434;2022-09-03T03:00:11;9.35;;;7.00;;
61572;SDS011;47465;43.094;12.434;2022-09-03T03:02:38;9.88;;;7.15;;
61572;SDS011;47465;43.094;12.434;2022-09-03T03:05:06;8.23;;;7.10;;
61572;SDS011;47465;43.094;12.434;2022-09-03T03:07:35;10.10;;;7.30;;
61572;SDS011;47465;43.094;12.434;2022-09-03T03:10:06;9.10;;;7.00;;
61572;SDS011;47465;43.094;12.434;2022-09-03T03:12:33;11.25;;;7.75;;
61572;SDS011;47465;43.094;12.434;2022-09-03T03:14:59;9.13;;;7.75;;
61572;SDS011;47465;43.094;12.434;2022-09-03T03:17:25;11.57;;;8.10;;
61572;SDS011;47465;43.094;12.434;2022-09-03T03:19:51;12.70;;;8.35;;
61572;SDS011;47465;43.094;12.434;2022-09-03T03:22:16;14.05;;;8.55;;
61572;SDS011;47465;43.094;12.434;2022-09-03T03:24:42;11.88;;;8.23;;
61572;SDS011;47465;43.094;12.434;2022-09-03T03:27:10;11.60;;;7.72;;
61572;SDS011;47465;43.094;12.434;2022-09-03T03:29:37;12.13;;;8.25;;
61572;SDS011;47465;43.094;12.434;2022-09-03T03:32:03;11.25;;;8.55;;
61572;SDS011;47465;43.094;12.434;2022-09-03T03:34:29;9.10;;;7.50;;
61572;SDS011;47465;43.094;12.434;2022-09-03T03:36:55;9.65;;;7.18;;
61572;SDS011;47465;43.094;12.434;2022-09-03T03:39:21;9.85;;;7.45;;
61572;SDS011;47465;43.094;12.434;2022-09-03T03:41:47;8.18;;;7.25;;
61572;SDS011;47465;43.094;12.434;2022-09-03T03:44:14;9.02;;;7.28;;
61572;SDS011;47465;43.094;12.434;2022-09-03T03:46:41;9.65;;;7.07;;
61572;SDS011;47465;43.094;12.434;2022-09-03T03:49:07;8.85;;;7.60;;
61572;SDS011;47465;43.094;12.434;2022-09-03T03:51:34;11.05;;;8.50;;
61572;SDS011;47465;43.094;12.434;2022-09-03T03:54:01;14.50;;;8.23;;
61572;SDS011;47465;43.094;12.434;2022-09-03T03:56:27;10.73;;;7.93;;
61572;SDS011;47465;43.094;12.434;2022-09-03T03:58:53;11.32;;;8.05;;
61572;SDS011;47465;43.094;12.434;2022-09-03T04:01:21;10.65;;;7.70;;
61572;SDS011;47465;43.094;12.434;2022-09-03T04:03:48;9.00;;;7.35;;
61572;SDS011;47465;43.094;12.434;2022-09-03T04:06:15;10.43;;;7.43;;
61572;SDS011;47465;43.094;12.434;2022-09-03T04:08:43;9.40;;;7.50;;
61572;SDS011;47465;43.094;12.434;2022-09-03T04:11:10;9.77;;;7.63;;
61572;SDS011;47465;43.094;12.434;2022-09-03T04:13:38;11.60;;;7.40;;
61572;SDS011;47465;43.094;12.434;2022-09-03T04:16:06;9.75;;;7.50;;
61572;SDS011;47465;43.094;12.434;2022-09-03T04:18:35;10.52;;;7.53;;
61572;SDS011;47465;43.094;12.434;2022-09-03T04:21:03;9.88;;;7.45;;
61572;SDS011;47465;43.094;12.434;2022-09-03T04:23:31;8.70;;;7.55;;
61572;SDS011;47465;43.094;12.434;2022-09-03T04:25:57;12.65;;;7.55;;
61572;SDS011;47465;43.094;12.434;2022-09-03T04:28:23;11.60;;;7.00;;
61572;SDS011;47465;43.094;12.434;2022-09-03T04:30:49;9.05;;;6.70;;
61572;SDS011;47465;43.094;12.434;2022-09-03T04:33:15;9.50;;;6.55;;
61572;SDS011;47465;43.094;12.434;2022-09-03T04:35:42;8.95;;;6.43;;
61572;SDS011;47465;43.094;12.434;2022-09-03T04:38:08;9.07;;;6.90;;
61572;SDS011;47465;43.094;12.434;2022-09-03T04:40:34;8.60;;;6.60;;
61572;SDS011;47465;43.094;12.434;2022-09-03T04:43:00;10.05;;;7.15;;
61572;SDS011;47465;43.094;12.434;2022-09-03T04:45:26;9.73;;;7.45;;
61572;SDS011;47465;43.094;12.434;2022-09-03T04:47:56;11.27;;;7.25;;
61572;SDS011;47465;43.094;12.434;2022-09-03T04:50:23;10.40;;;7.82;;
61572;SDS011;47465;43.094;12.434;2022-09-03T04:52:52;13.45;;;7.22;;
61572;SDS011;47465;43.094;12.434;2022-09-03T04:55:20;9.93;;;7.95;;
61572;SDS011;47465;43.094;12.434;2022-09-03T04:57:46;10.43;;;7.90;;
61572;SDS011;47465;43.094;12.434;2022-09-03T05:00:12;11.82;;;8.18;;
61572;SDS011;47465;43.094;12.434;2022-09-03T05:02:42;13.43;;;8.65;;
61572;SDS011;47465;43.094;12.434;2022-09-03T05:05:08;9.73;;;8.10;;
61572;SDS011;47465;43.094;12.434;2022-09-03T05:07:34;12.68;;;8.23;;
61572;SDS011;47465;43.094;12.434;2022-09-03T05:12:31;12.10;;;7.85;;
61572;SDS011;47465;43.094;12.434;2022-09-03T05:14:57;13.55;;;8.60;;
61572;SDS011;47465;43.094;12.434;2022-09-03T05:17:24;11.35;;;7.95;;
61572;SDS011;47465;43.094;12.434;2022-09-03T05:19:50;15.45;;;8.80;;
61572;SDS011;47465;43.094;12.434;2022-09-03T05:22:16;11.45;;;8.43;;
61572;SDS011;47465;43.094;12.434;2022-09-03T05:24:45;15.20;;;9.60;;
61572;SDS011;47465;43.094;12.434;2022-09-03T05:27:12;12.45;;;8.45;;
61572;SDS011;47465;43.094;12.434;2022-09-03T05:29:41;14.02;;;9.15;;
61572;SDS011;47465;43.094;12.434;2022-09-03T05:32:06;11.63;;;8.20;;
61572;SDS011;47465;43.094;12.434;2022-09-03T05:34:32;13.00;;;9.45;;
61572;SDS011;47465;43.094;12.434;2022-09-03T05:36:58;11.75;;;8.20;;
61572;SDS011;47465;43.094;12.434;2022-09-03T05:39:24;14.20;;;9.70;;
61572;SDS011;47465;43.094;12.434;2022-09-03T05:41:50;12.18;;;8.43;;
61572;SDS011;47465;43.094;12.434;2022-09-03T05:44:18;12.90;;;9.10;;
61572;SDS011;47465;43.094;12.434;2022-09-03T05:46:47;14.25;;;9.07;;
61572;SDS011;47465;43.094;12.434;2022-09-03T05:49:14;15.90;;;10.02;;
61572;SDS011;47465;43.094;12.434;2022-09-03T05:51:40;17.73;;;10.13;;
61572;SDS011;47465;43.094;12.434;2022-09-03T05:54:07;15.23;;;9.70;;
61572;SDS011;47465;43.094;12.434;2022-09-03T05:56:33;14.13;;;9.90;;
61572;SDS011;47465;43.094;12.434;2022-09-03T05:59:00;14.40;;;10.05;;
61572;SDS011;47465;43.094;12.434;2022-09-03T06:01:32;15.57;;;10.10;;
61572;SDS011;47465;43.094;12.434;2022-09-03T06:06:26;14.38;;;9.32;;
61572;SDS011;47465;43.094;12.434;2022-09-03T06:08:54;12.23;;;8.57;;
61572;SDS011;47465;43.094;12.434;2022-09-03T06:11:22;13.45;;;9.68;;
61572;SDS011;47465;43.094;12.434;2022-09-03T06:13:52;13.82;;;9.38;;
61572;SDS011;47465;43.094;12.434;2022-09-03T06:16:19;16.05;;;10.57;;
61572;SDS011;47465;43.094;12.434;2022-09-03T06:18:48;13.20;;;9.77;;
61572;SDS011;47465;43.094;12.434;2022-09-03T06:21:14;14.07;;;9.70;;
61572;SDS011;47465;43.094;12.434;2022-09-03T06:23:40;15.48;;;9.43;;
61572;SDS011;47465;43.094;12.434;2022-09-03T06:26:07;13.05;;;9.25;;
61572;SDS011;47465;43.094;12.434;2022-09-03T06:28:35;11.32;;;8.82;;
61572;SDS011;47465;43.094;12.434;2022-09-03T06:31:03;15.20;;;8.98;;
61572;SDS011;47465;43.094;12.434;2022-09-03T06:33:31;11.47;;;8.60;;
61572;SDS011;47465;43.094;12.434;2022-09-03T06:36:00;10.40;;;8.20;;
61572;SDS011;47465;43.094;12.434;2022-09-03T06:40:54;13.18;;;8.48;;
61572;SDS011;47465;43.094;12.434;2022-09-03T06:43:20;13.07;;;9.18;;
61572;SDS011;47465;43.094;12.434;2022-09-03T06:45:53;13.60;;;9.30;;
61572;SDS011;47465;43.094;12.434;2022-09-03T06:48:20;14.80;;;9.52;;
61572;SDS011;47465;43.094;12.434;2022-09-03T06:50:52;10.80;;;8.88;;
61572;SDS011;47465;43.094;12.434;2022-09-03T06:53:21;13.52;;;8.60;;
61572;SDS011;47465;43.094;12.434;2022-09-03T06:55:51;13.23;;;8.50;;
61572;SDS011;47465;43.094;12.434;2022-09-03T06:58:17;13.32;;;9.05;;
61572;SDS011;47465;43.094;12.434;2022-09-03T07:00:43;13.45;;;9.13;;
61572;SDS011;47465;43.094;12.434;2022-09-03T07:03:09;13.38;;;9.05;;
61572;SDS011;47465;43.094;12.434;2022-09-03T07:05:35;12.70;;;9.13;;
61572;SDS011;47465;43.094;12.434;2022-09-03T07:08:01;13.90;;;9.75;;
61572;SDS011;47465;43.094;12.434;2022-09-03T07:10:29;13.38;;;9.38;;
61572;SDS011;47465;43.094;12.434;2022-09-03T07:12:55;13.70;;;9.23;;
61572;SDS011;47465;43.094;12.434;2022-09-03T07:15:20;14.88;;;8.98;;
61572;SDS011;47465;43.094;12.434;2022-09-03T07:17:46;13.75;;;9.13;;
61572;SDS011;47465;43.094;12.434;2022-09-03T07:20:14;13.18;;;8.25;;
61572;SDS011;47465;43.094;12.434;2022-09-03T07:22:39;13.00;;;8.80;;
61572;SDS011;47465;43.094;12.434;2022-09-03T07:25:06;9.75;;;8.02;;
61572;SDS011;47465;43.094;12.434;2022-09-03T07:27:34;10.40;;;7.95;;
61572;SDS011;47465;43.094;12.434;2022-09-03T07:30:00;10.13;;;7.05;;
61572;SDS011;47465;43.094;12.434;2022-09-03T07:32:27;9.45;;;6.90;;
61572;SDS011;47465;43.094;12.434;2022-09-03T07:34:53;8.75;;;6.70;;
61572;SDS011;47465;43.094;12.434;2022-09-03T07:37:19;8.80;;;6.28;;
61572;SDS011;47465;43.094;12.434;2022-09-03T07:39:45;9.23;;;6.97;;
61572;SDS011;47465;43.094;12.434;2022-09-03T07:42:11;9.32;;;6.55;;
61572;SDS011;47465;43.094;12.434;2022-09-03T07:44:38;11.45;;;7.13;;
61572;SDS011;47465;43.094;12.434;2022-09-03T07:47:04;10.55;;;7.18;;
61572;SDS011;47465;43.094;12.434;2022-09-03T07:49:31;11.07;;;7.82;;
61572;SDS011;47465;43.094;12.434;2022-09-03T07:51:57;8.65;;;6.82;;
61572;SDS011;47465;43.094;12.434;2022-09-03T07:54:22;9.27;;;7.03;;
61572;SDS011;47465;43.094;12.434;2022-09-03T07:56:50;11.85;;;6.80;;
61572;SDS011;47465;43.094;12.434;2022-09-03T07:59:16;8.85;;;6.80;;
61572;SDS011;47465;43.094;12.434;2022-09-03T08:01:43;12.77;;;7.20;;
61572;SDS011;47465;43.094;12.434;2022-09-03T08:04:09;10.40;;;7.25;;
61572;SDS011;47465;43.094;12.434;2022-09-03T08:06:36;12.27;;;7.53;;
61572;SDS011;47465;43.094;12.434;2022-09-03T08:09:04;10.52;;;7.15;;
61572;SDS011;47465;43.094;12.434;2022-09-03T08:11:32;7.95;;;6.72;;
61572;SDS011;47465;43.094;12.434;2022-09-03T08:14:01;7.95;;;6.55;;
61572;SDS011;47465;43.094;12.434;2022-09-03T08:16:31;9.30;;;6.90;;
61572;SDS011;47465;43.094;12.434;2022-09-03T08:19:00;9.65;;;7.22;;
61572;SDS011;47465;43.094;12.434;2022-09-03T08:21:26;7.95;;;6.47;;
61572;SDS011;47465;43.094;12.434;2022-09-03T08:23:53;11.70;;;6.93;;
61572;SDS011;47465;43.094;12.434;2022-09-03T08:26:26;9.82;;;7.10;;
61572;SDS011;47465;43.094;12.434;2022-09-03T08:28:53;8.05;;;6.50;;
61572;SDS011;47465;43.094;12.434;2022-09-03T08:31:20;10.10;;;6.95;;
61572;SDS011;47465;43.094;12.434;2022-09-03T08:33:47;11.13;;;7.25;;
61572;SDS011;47465;43.094;12.434;2022-09-03T08:36:16;10.02;;;6.97;;
61572;SDS011;47465;43.094;12.434;2022-09-03T08:38:44;9.52;;;7.38;;
61572;SDS011;47465;43.094;12.434;2022-09-03T08:41:11;11.23;;;6.95;;
61572;SDS011;47465;43.094;12.434;2022-09-03T08:43:50;9.00;;;6.72;;
61572;SDS011;47465;43.094;12.434;2022-09-03T08:46:23;11.77;;;8.02;;
61572;SDS011;47465;43.094;12.434;2022-09-03T08:48:56;14.50;;;9.05;;
61572;SDS011;47465;43.094;12.434;2022-09-03T08:51:25;15.18;;;8.55;;
61572;SDS011;47465;43.094;12.434;2022-09-03T08:53:52;12.03;;;8.27;;
61572;SDS011;47465;43.094;12.434;2022-09-03T08:56:23;13.85;;;8.45;;
61572;SDS011;47465;43.094;12.434;2022-09-03T08:58:51;10.88;;;8.13;;
61572;SDS011;47465;43.094;12.434;2022-09-03T09:01:21;11.07;;;8.05;;
61572;SDS011;47465;43.094;12.434;2022-09-03T09:03:57;11.77;;;8.20;;
61572;SDS011;47465;43.094;12.434;2022-09-03T09:06:38;11.55;;;7.88;;
61572;SDS011;47465;43.094;12.434;2022-09-03T09:09:11;13.48;;;7.32;;
61572;SDS011;47465;43.094;12.434;2022-09-03T09:11:54;14.02;;;7.63;;
61572;SDS011;47465;43.094;12.434;2022-09-03T09:14:29;11.38;;;8.73;;
61572;SDS011;47465;43.094;12.434;2022-09-03T09:17:05;15.52;;;8.75;;
61572;SDS011;47465;43.094;12.434;2022-09-03T09:19:45;12.65;;;8.52;;
61572;SDS011;47465;43.094;12.434;2022-09-03T09:22:26;13.48;;;9.13;;
61572;SDS011;47465;43.094;12.434;2022-09-03T09:24:58;14.80;;;9.43;;
61572;SDS011;47465;43.094;12.434;2022-09-03T09:27:29;12.60;;;9.45;;
61572;SDS011;47465;43.094;12.434;2022-09-03T09:29:57;15.45;;;10.13;;
61572;SDS011;47465;43.094;12.434;2022-09-03T09:32:26;15.88;;;9.73;;
61572;SDS011;47465;43.094;12.434;2022-09-03T09:34:52;14.38;;;9.18;;
61572;SDS011;47465;43.094;12.434;2022-09-03T09:37:19;15.45;;;9.15;;
61572;SDS011;47465;43.094;12.434;2022-09-03T09:39:55;12.02;;;8.90;;
61572;SDS011;47465;43.094;12.434;2022-09-03T09:42:22;15.30;;;10.23;;
61572;SDS011;47465;43.094;12.434;2022-09-03T09:44:48;13.43;;;9.13;;
61572;SDS011;47465;43.094;12.434;2022-09-03T09:47:15;18.40;;;10.07;;
61572;SDS011;47465;43.094;12.434;2022-09-03T09:49:52;19.02;;;9.60;;
61572;SDS011;47465;43.094;12.434;2022-09-03T09:52:18;14.50;;;9.80;;
61572;SDS011;47465;43.094;12.434;2022-09-03T09:54:49;13.43;;;9.65;;
61572;SDS011;47465;43.094;12.434;2022-09-03T09:57:20;12.65;;;8.55;;
61572;SDS011;47465;43.094;12.434;2022-09-03T09:59:47;13.88;;;9.00;;
61572;SDS011;47465;43.094;12.434;2022-09-03T10:02:17;15.93;;;8.88;;
61572;SDS011;47465;43.094;12.434;2022-09-03T10:04:48;14.80;;;9.27;;
61572;SDS011;47465;43.094;12.434;2022-09-03T10:07:18;15.95;;;9.77;;
61572;SDS011;47465;43.094;12.434;2022-09-03T10:09:56;16.08;;;9.73;;
61572;SDS011;47465;43.094;12.434;2022-09-03T10:12:31;16.17;;;9.65;;
61572;SDS011;47465;43.094;12.434;2022-09-03T10:15:02;16.83;;;11.70;;
61572;SDS011;47465;43.094;12.434;2022-09-03T10:17:42;17.10;;;11.23;;
61572;SDS011;47465;43.094;12.434;2022-09-03T10:20:14;20.25;;;10.65;;
61572;SDS011;47465;43.094;12.434;2022-09-03T10:22:52;16.25;;;10.90;;
61572;SDS011;47465;43.094;12.434;2022-09-03T10:25:24;15.35;;;10.80;;
61572;SDS011;47465;43.094;12.434;2022-09-03T10:27:58;18.25;;;11.50;;
61572;SDS011;47465;43.094;12.434;2022-09-03T10:30:25;19.05;;;11.80;;
61572;SDS011;47465;43.094;12.434;2022-09-03T10:32:53;17.42;;;11.48;;
61572;SDS011;47465;43.094;12.434;2022-09-03T10:35:30;25.42;;;15.77;;
61572;SDS011;47465;43.094;12.434;2022-09-03T10:38:02;19.77;;;14.40;;
61572;SDS011;47465;43.094;12.434;2022-09-03T10:40:35;19.70;;;13.70;;
61572;SDS011;47465;43.094;12.434;2022-09-03T10:43:15;23.35;;;15.88;;
61572;SDS011;47465;43.094;12.434;2022-09-03T10:45:58;23.80;;;15.80;;
61572;SDS011;47465;43.094;12.434;2022-09-03T10:48:42;26.65;;;16.50;;
61572;SDS011;47465;43.094;12.434;2022-09-03T10:51:21;31.52;;;19.15;;
61572;SDS011;47465;43.094;12.434;2022-09-03T10:53:54;38.40;;;24.27;;
61572;SDS011;47465;43.094;12.434;2022-09-03T10:56:53;28.45;;;18.88;;
61572;SDS011;47465;43.094;12.434;2022-09-03T10:59:32;27.45;;;17.58;;
61572;SDS011;47465;43.094;12.434;2022-09-03T11:02:15;26.13;;;16.00;;
61572;SDS011;47465;43.094;12.434;2022-09-03T11:04:50;25.10;;;16.65;;
61572;SDS011;47465;43.094;12.434;2022-09-03T11:07:26;34.13;;;20.50;;
61572;SDS011;47465;43.094;12.434;2022-09-03T11:10:09;20.45;;;13.73;;
61572;SDS011;47465;43.094;12.434;2022-09-03T11:12:42;26.67;;;15.93;;
61572;SDS011;47465;43.094;12.434;2022-09-03T11:15:14;22.77;;;15.52;;
61572;SDS011;47465;43.094;12.434;2022-09-03T11:17:50;24.27;;;15.82;;
61572;SDS011;47465;43.094;12.434;2022-09-03T11:20:21;23.15;;;16.05;;
61572;SDS011;47465;43.094;12.434;2022-09-03T11:22:50;20.50;;;13.77;;
61572;SDS011;47465;43.094;12.434;2022-09-03T11:25:20;21.65;;;13.25;;
61572;SDS011;47465;43.094;12.434;2022-09-03T11:27:54;20.92;;;13.18;;
61572;SDS011;47465;43.094;12.434;2022-09-03T11:30:36;20.83;;;12.23;;
61572;SDS011;47465;43.094;12.434;2022-09-03T11:33:16;16.88;;;11.40;;
61572;SDS011;47465;43.094;12.434;2022-09-03T11:35:46;17.40;;;10.27;;
61572;SDS011;47465;43.094;12.434;2022-09-03T11:38:20;14.95;;;9.55;;
61572;SDS011;47465;43.094;12.434;2022-09-03T11:41:00;16.08;;;10.50;;
61572;SDS011;47465;43.094;12.434;2022-09-03T11:43:29;21.77;;;9.77;;
61572;SDS011;47465;43.094;12.434;2022-09-03T11:46:05;15.52;;;8.88;;
61572;SDS011;47465;43.094;12.434;2022-09-03T11:48:37;10.63;;;7.75;;
61572;SDS011;47465;43.094;12.434;2022-09-03T11:51:16;11.63;;;8.00;;
61572;SDS011;47465;43.094;12.434;2022-09-03T11:53:52;9.95;;;7.90;;
61572;SDS011;47465;43.094;12.434;2022-09-03T11:56:19;12.32;;;7.97;;
61572;SDS011;47465;43.094;12.434;2022-09-03T11:58:56;13.32;;;8.32;;
61572;SDS011;47465;43.094;12.434;2022-09-03T12:01:26;8.68;;;6.65;;
61572;SDS011;47465;43.094;12.434;2022-09-03T12:03:53;9.07;;;6.80;;
61572;SDS011;47465;43.094;12.434;2022-09-03T12:06:32;10.93;;;6.70;;
61572;SDS011;47465;43.094;12.434;2022-09-03T12:12:25;10.00;;;6.80;;
61572;SDS011;47465;43.094;12.434;2022-09-03T12:15:04;8.43;;;6.45;;
61572;SDS011;47465;43.094;12.434;2022-09-03T12:17:42;8.85;;;6.80;;
61572;SDS011;47465;43.094;12.434;2022-09-03T12:20:36;10.27;;;7.07;;
61572;SDS011;47465;43.094;12.434;2022-09-03T12:23:03;12.27;;;7.10;;
61572;SDS011;47465;43.094;12.434;2022-09-03T12:25:29;11.70;;;7.35;;
61572;SDS011;47465;43.094;12.434;2022-09-03T12:27:56;9.88;;;7.28;;
61572;SDS011;47465;43.094;12.434;2022-09-03T12:30:27;12.82;;;7.97;;
61572;SDS011;47465;43.094;12.434;2022-09-03T12:33:04;9.38;;;6.65;;
61572;SDS011;47465;43.094;12.434;2022-09-03T12:35:30;11.43;;;7.55;;
61572;SDS011;47465;43.094;12.434;2022-09-03T12:37:56;11.93;;;7.10;;
61572;SDS011;47465;43.094;12.434;2022-09-03T12:40:23;12.88;;;7.68;;
61572;SDS011;47465;43.094;12.434;2022-09-03T12:42:50;10.30;;;7.33;;
61572;SDS011;47465;43.094;12.434;2022-09-03T12:45:18;11.00;;;7.70;;
61572;SDS011;47465;43.094;12.434;2022-09-03T12:47:45;12.20;;;7.53;;
61572;SDS011;47465;43.094;12.434;2022-09-03T12:50:14;11.52;;;6.85;;
61572;SDS011;47465;43.094;12.434;2022-09-03T12:52:42;9.52;;;7.25;;
61572;SDS011;47465;43.094;12.434;2022-09-03T12:55:23;10.77;;;7.93;;
61572;SDS011;47465;43.094;12.434;2022-09-03T12:57:59;12.98;;;8.02;;
61572;SDS011;47465;43.094;12.434;2022-09-03T13:00:30;12.65;;;7.85;;
61572;SDS011;47465;43.094;12.434;2022-09-03T13:02:59;12.07;;;7.90;;
61572;SDS011;47465;43.094;12.434;2022-09-03T13:05:30;11.52;;;8.15;;
61572;SDS011;47465;43.094;12.434;2022-09-03T13:08:00;10.10;;;7.50;;
61572;SDS011;47465;43.094;12.434;2022-09-03T13:10:30;13.05;;;8.18;;
61572;SDS011;47465;43.094;12.434;2022-09-03T13:13:01;11.73;;;7.63;;
61572;SDS011;47465;43.094;12.434;2022-09-03T13:15:31;12.52;;;7.53;;
61572;SDS011;47465;43.094;12.434;2022-09-03T13:18:05;12.45;;;7.03;;
61572;SDS011;47465;43.094;12.434;2022-09-03T13:20:47;11.68;;;7.53;;
61572;SDS011;47465;43.094;12.434;2022-09-03T13:23:35;10.10;;;6.43;;
61572;SDS011;47465;43.094;12.434;2022-09-03T13:26:17;12.15;;;7.18;;
61572;SDS011;47465;43.094;12.434;2022-09-03T13:29:01;10.45;;;7.43;;
61572;SDS011;47465;43.094;12.434;2022-09-03T13:31:42;11.60;;;7.63;;
61572;SDS011;47465;43.094;12.434;2022-09-03T13:34:14;11.63;;;7.20;;
61572;SDS011;47465;43.094;12.434;2022-09-03T13:36:47;11.75;;;7.35;;
61572;SDS011;47465;43.094;12.434;2022-09-03T13:39:19;11.07;;;8.00;;
61572;SDS011;47465;43.094;12.434;2022-09-03T13:41:52;14.82;;;8.15;;
61572;SDS011;47465;43.094;12.434;2022-09-03T13:44:24;12.30;;;7.68;;
61572;SDS011;47465;43.094;12.434;2022-09-03T13:47:00;11.73;;;8.63;;
61572;SDS011;47465;43.094;12.434;2022-09-03T13:49:34;14.68;;;8.88;;
61572;SDS011;47465;43.094;12.434;2022-09-03T13:52:33;14.97;;;9.03;;
61572;SDS011;47465;43.094;12.434;2022-09-03T13:55:07;16.33;;;9.48;;
61572;SDS011;47465;43.094;12.434;2022-09-03T13:57:39;18.65;;;10.25;;
61572;SDS011;47465;43.094;12.434;2022-09-03T14:00:21;16.80;;;10.18;;
61572;SDS011;47465;43.094;12.434;2022-09-03T14:02:51;17.92;;;11.73;;
61572;SDS011;47465;43.094;12.434;2022-09-03T14:05:22;17.92;;;12.57;;
61572;SDS011;47465;43.094;12.434;2022-09-03T14:08:03;18.55;;;12.52;;
61572;SDS011;47465;43.094;12.434;2022-09-03T14:10:53;19.20;;;12.05;;
61572;SDS011;47465;43.094;12.434;2022-09-03T14:13:27;22.00;;;13.38;;
61572;SDS011;47465;43.094;12.434;2022-09-03T14:16:05;20.38;;;13.40;;
61572;SDS011;47465;43.094;12.434;2022-09-03T14:18:40;18.98;;;12.30;;
61572;SDS011;47465;43.094;12.434;2022-09-03T14:21:15;14.73;;;9.90;;
61572;SDS011;47465;43.094;12.434;2022-09-03T14:23:48;11.60;;;7.50;;
61572;SDS011;47465;43.094;12.434;2022-09-03T14:26:20;11.52;;;7.78;;
61572;SDS011;47465;43.094;12.434;2022-09-03T14:28:56;10.85;;;7.13;;
61572;SDS011;47465;43.094;12.434;2022-09-03T14:31:26;9.05;;;7.15;;
61572;SDS011;47465;43.094;12.434;2022-09-03T14:34:05;10.82;;;6.32;;
61572;SDS011;47465;43.094;12.434;2022-09-03T14:36:39;11.30;;;5.30;;
61572;SDS011;47465;43.094;12.434;2022-09-03T14:39:19;7.60;;;5.18;;
61572;SDS011;47465;43.094;12.434;2022-09-03T14:41:56;9.50;;;5.28;;
61572;SDS011;47465;43.094;12.434;2022-09-03T14:47:41;8.45;;;6.15;;
61572;SDS011;47465;43.094;12.434;2022-09-03T14:50:21;11.63;;;6.03;;
61572;SDS011;47465;43.094;12.434;2022-09-03T14:53:01;10.63;;;6.47;;
61572;SDS011;47465;43.094;12.434;2022-09-03T14:56:03;8.18;;;5.80;;
61572;SDS011;47465;43.094;12.434;2022-09-03T14:58:46;10.75;;;6.68;;
61572;SDS011;47465;43.094;12.434;2022-09-03T15:01:26;11.55;;;6.22;;
61572;SDS011;47465;43.094;12.434;2022-09-03T15:07:01;10.35;;;6.10;;